SHT5N EGAC-EGLL
Flight info
| Callsign | SHT5N |
|---|---|
| Flight time | 0h 50m |
| Altitude | 25000 |
| Route | DCT DUFFY L10 RINGA Q39 ETIGA/N0441F370 DCT INKOB Q39 NOMSU UQ4 WAL UY53 NUGRA NUGRA2H |
| Aircraft | A319/M-SDE3FGIJ1KRWXY/LB1 |
Departure
| Time | 2026-05-05 20:38 |
|---|---|
| Airport | George Best Belfast City Airport (EGAC) |
Arrival
| Time | 2026-05-05 21:28 |
|---|---|
| Airport | London Heathrow Airport (EGLL) |
| Time | Latitude | Longitude | Altitude | Speed | Heading |
|---|---|---|---|---|---|
| 2026-05-05 20:19 | 54.61461 | -5.87187 | 17 ft | 0 kts | 156° |
| 2026-05-05 20:32 | 54.61468 | -5.87193 | 19 ft | 4 kts | 156° |
| 2026-05-05 20:32 | 54.61493 | -5.87211 | 20 ft | 4 kts | 161° |
| 2026-05-05 20:32 | 54.61518 | -5.87223 | 19 ft | 4 kts | 179° |
| 2026-05-05 20:32 | 54.61537 | -5.87217 | 18 ft | 0 kts | 217° |
| 2026-05-05 20:35 | 54.61528 | -5.87229 | 17 ft | 4 kts | 217° |
| 2026-05-05 20:35 | 54.61498 | -5.87264 | 18 ft | 7 kts | 213° |
| 2026-05-05 20:36 | 54.61449 | -5.87321 | 17 ft | 10 kts | 215° |
| 2026-05-05 20:36 | 54.61394 | -5.87420 | 17 ft | 13 kts | 232° |
| 2026-05-05 20:36 | 54.61311 | -5.87531 | 17 ft | 17 kts | 214° |
| 2026-05-05 20:36 | 54.61213 | -5.87649 | 18 ft | 19 kts | 214° |
| 2026-05-05 20:37 | 54.61104 | -5.87780 | 18 ft | 15 kts | 219° |
| 2026-05-05 20:37 | 54.61101 | -5.87942 | 22 ft | 15 kts | 303° |
| 2026-05-05 20:37 | 54.61187 | -5.87994 | 24 ft | 16 kts | 33° |
| 2026-05-05 20:37 | 54.61338 | -5.87814 | 19 ft | 51 kts | 34° |
| 2026-05-05 20:38 | 54.61813 | -5.87248 | 23 ft | 114 kts | 35° |
| 2026-05-05 20:38 | 54.62581 | -5.86329 | 337 ft | 135 kts | 33° |
| 2026-05-05 20:38 | 54.63314 | -5.85495 | 1185 ft | 124 kts | 29° |
| 2026-05-05 20:38 | 54.64088 | -5.84664 | 1626 ft | 143 kts | 29° |
| 2026-05-05 20:39 | 54.64739 | -5.83172 | 1970 ft | 178 kts | 72° |
| 2026-05-05 20:39 | 54.64468 | -5.80909 | 2316 ft | 217 kts | 121° |
| 2026-05-05 20:39 | 54.63254 | -5.79051 | 2840 ft | 250 kts | 145° |
| 2026-05-05 20:39 | 54.61678 | -5.77550 | 3734 ft | 265 kts | 152° |
| 2026-05-05 20:40 | 54.60027 | -5.76098 | 4945 ft | 267 kts | 147° |
| 2026-05-05 20:40 | 54.58592 | -5.74074 | 6146 ft | 267 kts | 138° |
| 2026-05-05 20:40 | 54.57191 | -5.71937 | 7222 ft | 272 kts | 138° |
| 2026-05-05 20:40 | 54.55755 | -5.69739 | 8158 ft | 281 kts | 139° |
| 2026-05-05 20:41 | 54.54271 | -5.67468 | 9080 ft | 290 kts | 139° |
| 2026-05-05 20:41 | 54.52746 | -5.65138 | 10017 ft | 297 kts | 139° |
| 2026-05-05 20:41 | 54.51151 | -5.62709 | 10549 ft | 318 kts | 139° |
| 2026-05-05 20:41 | 54.49456 | -5.60136 | 10940 ft | 339 kts | 139° |
| 2026-05-05 20:42 | 54.47662 | -5.57411 | 11651 ft | 348 kts | 139° |
| 2026-05-05 20:42 | 54.45832 | -5.54633 | 12471 ft | 354 kts | 140° |
| 2026-05-05 20:42 | 54.43972 | -5.51807 | 13295 ft | 359 kts | 140° |
| 2026-05-05 20:42 | 54.42087 | -5.48945 | 14085 ft | 364 kts | 140° |
| 2026-05-05 20:43 | 54.40182 | -5.46065 | 14813 ft | 368 kts | 140° |
| 2026-05-05 20:43 | 54.38244 | -5.43147 | 15561 ft | 372 kts | 140° |
| 2026-05-05 20:43 | 54.36290 | -5.40208 | 16319 ft | 375 kts | 140° |
| 2026-05-05 20:43 | 54.34317 | -5.37244 | 17062 ft | 379 kts | 140° |
| 2026-05-05 20:44 | 54.32353 | -5.34296 | 17803 ft | 382 kts | 140° |
| 2026-05-05 20:44 | 54.30342 | -5.31272 | 18508 ft | 387 kts | 140° |
| 2026-05-05 20:44 | 54.28320 | -5.28209 | 19161 ft | 390 kts | 138° |
| 2026-05-05 20:44 | 54.26490 | -5.24750 | 19815 ft | 395 kts | 130° |
| 2026-05-05 20:45 | 54.22986 | -5.17411 | 21137 ft | 401 kts | 130° |
| 2026-05-05 20:45 | 54.21206 | -5.13712 | 21767 ft | 405 kts | 131° |
| 2026-05-05 20:45 | 54.19408 | -5.09987 | 22395 ft | 408 kts | 131° |
| 2026-05-05 20:46 | 54.17592 | -5.06228 | 23009 ft | 412 kts | 131° |
| 2026-05-05 20:46 | 54.15790 | -5.02496 | 23600 ft | 415 kts | 131° |
| 2026-05-05 20:46 | 54.13938 | -4.98669 | 24098 ft | 419 kts | 131° |
| 2026-05-05 20:46 | 54.12079 | -4.94824 | 24592 ft | 422 kts | 131° |
| 2026-05-05 20:47 | 54.10208 | -4.90957 | 25078 ft | 425 kts | 131° |
| 2026-05-05 20:47 | 54.08317 | -4.87060 | 25558 ft | 428 kts | 131° |
| 2026-05-05 20:47 | 54.06411 | -4.83150 | 26039 ft | 431 kts | 131° |
| 2026-05-05 20:47 | 54.04493 | -4.79220 | 26517 ft | 434 kts | 131° |
| 2026-05-05 20:48 | 54.02617 | -4.75259 | 26982 ft | 437 kts | 130° |
| 2026-05-05 20:48 | 54.00757 | -4.71146 | 27451 ft | 440 kts | 129° |
| 2026-05-05 20:48 | 53.98920 | -4.66970 | 27920 ft | 443 kts | 128° |
| 2026-05-05 20:48 | 53.97079 | -4.62747 | 28382 ft | 446 kts | 128° |
| 2026-05-05 20:49 | 53.95224 | -4.58498 | 28840 ft | 449 kts | 128° |
| 2026-05-05 20:49 | 53.93346 | -4.54234 | 29287 ft | 452 kts | 129° |
| 2026-05-05 20:49 | 53.91444 | -4.49966 | 29730 ft | 455 kts | 129° |
| 2026-05-05 20:49 | 53.89521 | -4.45697 | 30153 ft | 457 kts | 129° |
| 2026-05-05 20:50 | 53.87610 | -4.41475 | 30492 ft | 460 kts | 129° |
| 2026-05-05 20:50 | 53.85650 | -4.37057 | 30846 ft | 463 kts | 128° |
| 2026-05-05 20:50 | 53.83802 | -4.32666 | 31190 ft | 465 kts | 126° |
| 2026-05-05 20:50 | 53.81970 | -4.28144 | 31529 ft | 468 kts | 126° |
| 2026-05-05 20:51 | 53.80145 | -4.23567 | 31894 ft | 469 kts | 125° |
| 2026-05-05 20:51 | 53.78324 | -4.18997 | 32387 ft | 467 kts | 126° |
| 2026-05-05 20:51 | 53.76501 | -4.14461 | 32886 ft | 466 kts | 126° |
| 2026-05-05 20:51 | 53.74667 | -4.09952 | 33390 ft | 464 kts | 126° |
| 2026-05-05 20:52 | 53.72827 | -4.05482 | 33895 ft | 463 kts | 126° |
| 2026-05-05 20:52 | 53.70980 | -4.01035 | 34341 ft | 462 kts | 127° |
| 2026-05-05 20:52 | 53.69157 | -3.96670 | 34742 ft | 461 kts | 127° |
| 2026-05-05 20:52 | 53.67308 | -3.92248 | 35139 ft | 461 kts | 127° |
| 2026-05-05 20:53 | 53.65464 | -3.87830 | 35513 ft | 461 kts | 127° |
| 2026-05-05 20:53 | 53.63622 | -3.83408 | 35871 ft | 461 kts | 127° |
| 2026-05-05 20:53 | 53.61781 | -3.78988 | 36235 ft | 461 kts | 127° |
| 2026-05-05 20:53 | 53.59939 | -3.74564 | 36589 ft | 461 kts | 127° |
| 2026-05-05 20:54 | 53.58097 | -3.70153 | 36934 ft | 461 kts | 127° |
| 2026-05-05 20:54 | 53.56249 | -3.65740 | 37041 ft | 460 kts | 127° |
| 2026-05-05 20:54 | 53.52564 | -3.56993 | 37053 ft | 458 kts | 127° |
| 2026-05-05 20:55 | 53.48899 | -3.48334 | 37059 ft | 457 kts | 127° |
| 2026-05-05 20:55 | 53.45723 | -3.39097 | 37060 ft | 459 kts | 114° |
| 2026-05-05 20:56 | 53.43238 | -3.29215 | 37055 ft | 459 kts | 114° |
| 2026-05-05 20:56 | 53.40725 | -3.19379 | 37056 ft | 459 kts | 114° |
| 2026-05-05 20:57 | 53.37700 | -3.10020 | 37053 ft | 456 kts | 128° |
| 2026-05-05 20:57 | 53.33924 | -3.01580 | 37056 ft | 456 kts | 128° |
| 2026-05-05 20:58 | 53.30122 | -2.93083 | 37056 ft | 456 kts | 128° |
| 2026-05-05 20:58 | 53.26316 | -2.84596 | 37060 ft | 456 kts | 128° |
| 2026-05-05 20:59 | 53.22536 | -2.76174 | 37062 ft | 456 kts | 128° |
| 2026-05-05 20:59 | 53.18730 | -2.67695 | 37061 ft | 456 kts | 128° |
| 2026-05-05 21:00 | 53.14912 | -2.59249 | 37062 ft | 456 kts | 128° |
| 2026-05-05 21:00 | 53.11164 | -2.50721 | 37060 ft | 457 kts | 126° |
| 2026-05-05 21:01 | 53.07621 | -2.41950 | 37061 ft | 457 kts | 124° |
| 2026-05-05 21:01 | 53.04045 | -2.33339 | 37058 ft | 455 kts | 132° |
| 2026-05-05 21:02 | 52.99308 | -2.26512 | 37050 ft | 450 kts | 150° |
| 2026-05-05 21:02 | 52.93993 | -2.20997 | 36896 ft | 451 kts | 149° |
| 2026-05-05 21:03 | 52.91340 | -2.18221 | 36229 ft | 454 kts | 149° |
| 2026-05-05 21:03 | 52.88659 | -2.15409 | 35420 ft | 459 kts | 149° |
| 2026-05-05 21:03 | 52.85950 | -2.12569 | 34574 ft | 463 kts | 149° |
| 2026-05-05 21:03 | 52.83257 | -2.09754 | 33694 ft | 466 kts | 148° |
| 2026-05-05 21:04 | 52.80501 | -2.06878 | 32584 ft | 472 kts | 148° |
| 2026-05-05 21:04 | 52.77738 | -2.03997 | 32096 ft | 464 kts | 149° |
| 2026-05-05 21:04 | 52.75028 | -2.01178 | 31494 ft | 459 kts | 149° |
| 2026-05-05 21:04 | 52.72342 | -1.98393 | 30918 ft | 454 kts | 149° |
| 2026-05-05 21:05 | 52.69678 | -1.95640 | 30326 ft | 449 kts | 149° |
| 2026-05-05 21:05 | 52.67044 | -1.92926 | 29682 ft | 444 kts | 149° |
| 2026-05-05 21:05 | 52.64442 | -1.90243 | 29105 ft | 438 kts | 149° |
| 2026-05-05 21:05 | 52.61879 | -1.87598 | 28534 ft | 432 kts | 149° |
| 2026-05-05 21:06 | 52.59386 | -1.85029 | 27984 ft | 426 kts | 149° |
| 2026-05-05 21:06 | 52.56890 | -1.82465 | 27436 ft | 420 kts | 150° |
| 2026-05-05 21:06 | 52.54420 | -1.79936 | 26885 ft | 415 kts | 150° |
| 2026-05-05 21:06 | 52.51984 | -1.77444 | 26363 ft | 410 kts | 150° |
| 2026-05-05 21:07 | 52.49577 | -1.74980 | 25843 ft | 406 kts | 150° |
| 2026-05-05 21:07 | 52.47194 | -1.72545 | 25357 ft | 401 kts | 150° |
| 2026-05-05 21:07 | 52.44837 | -1.70134 | 24863 ft | 398 kts | 150° |
| 2026-05-05 21:07 | 52.42500 | -1.67748 | 24390 ft | 394 kts | 150° |
| 2026-05-05 21:08 | 52.40182 | -1.65385 | 23923 ft | 392 kts | 150° |
| 2026-05-05 21:08 | 52.37874 | -1.63032 | 23448 ft | 389 kts | 150° |
| 2026-05-05 21:08 | 52.35616 | -1.60735 | 22976 ft | 385 kts | 150° |
| 2026-05-05 21:08 | 52.33358 | -1.58441 | 22519 ft | 380 kts | 150° |
| 2026-05-05 21:09 | 52.31125 | -1.56184 | 22067 ft | 375 kts | 150° |
| 2026-05-05 21:09 | 52.28924 | -1.53962 | 21598 ft | 370 kts | 150° |
| 2026-05-05 21:09 | 52.26742 | -1.51766 | 21138 ft | 366 kts | 150° |
| 2026-05-05 21:09 | 52.24588 | -1.49598 | 20670 ft | 362 kts | 150° |
| 2026-05-05 21:10 | 52.22451 | -1.47441 | 20187 ft | 359 kts | 149° |
| 2026-05-05 21:10 | 52.20463 | -1.44977 | 19771 ft | 364 kts | 140° |
| 2026-05-05 21:10 | 52.18530 | -1.42250 | 19422 ft | 369 kts | 141° |
| 2026-05-05 21:10 | 52.16612 | -1.39562 | 19049 ft | 368 kts | 141° |
| 2026-05-05 21:11 | 52.14673 | -1.36853 | 18678 ft | 367 kts | 141° |
| 2026-05-05 21:11 | 52.12740 | -1.34161 | 18301 ft | 364 kts | 141° |
| 2026-05-05 21:11 | 52.10818 | -1.31493 | 17900 ft | 362 kts | 141° |
| 2026-05-05 21:11 | 52.08905 | -1.28839 | 17533 ft | 361 kts | 141° |
| 2026-05-05 21:12 | 52.07001 | -1.26196 | 17164 ft | 359 kts | 141° |
| 2026-05-05 21:12 | 52.05108 | -1.23568 | 16796 ft | 357 kts | 141° |
| 2026-05-05 21:12 | 52.03219 | -1.20948 | 16429 ft | 356 kts | 141° |
| 2026-05-05 21:12 | 52.01338 | -1.18342 | 16055 ft | 355 kts | 141° |
| 2026-05-05 21:13 | 51.99488 | -1.15785 | 15699 ft | 353 kts | 141° |
| 2026-05-05 21:13 | 51.97620 | -1.13207 | 15340 ft | 352 kts | 141° |
| 2026-05-05 21:13 | 51.95757 | -1.10639 | 14985 ft | 351 kts | 141° |
| 2026-05-05 21:13 | 51.93889 | -1.08065 | 14206 ft | 357 kts | 141° |
| 2026-05-05 21:14 | 51.91993 | -1.05456 | 13662 ft | 352 kts | 140° |
| 2026-05-05 21:14 | 51.90197 | -1.02985 | 13519 ft | 327 kts | 140° |
| 2026-05-05 21:14 | 51.88522 | -1.00681 | 13385 ft | 305 kts | 140° |
| 2026-05-05 21:14 | 51.86968 | -0.98548 | 13206 ft | 289 kts | 140° |
| 2026-05-05 21:15 | 51.85529 | -0.96348 | 12795 ft | 283 kts | 129° |
| 2026-05-05 21:15 | 51.84492 | -0.93674 | 12307 ft | 280 kts | 115° |
| 2026-05-05 21:15 | 51.83643 | -0.90852 | 11848 ft | 279 kts | 115° |
| 2026-05-05 21:15 | 51.82789 | -0.88045 | 11536 ft | 278 kts | 115° |
| 2026-05-05 21:16 | 51.81936 | -0.85256 | 11254 ft | 276 kts | 115° |
| 2026-05-05 21:16 | 51.81087 | -0.82485 | 10972 ft | 274 kts | 115° |
| 2026-05-05 21:16 | 51.80241 | -0.79731 | 10704 ft | 273 kts | 115° |
| 2026-05-05 21:16 | 51.79397 | -0.76987 | 10427 ft | 272 kts | 115° |
| 2026-05-05 21:17 | 51.78558 | -0.74265 | 10153 ft | 271 kts | 115° |
| 2026-05-05 21:17 | 51.77735 | -0.71585 | 9894 ft | 269 kts | 115° |
| 2026-05-05 21:17 | 51.76903 | -0.68877 | 9605 ft | 268 kts | 115° |
| 2026-05-05 21:17 | 51.76077 | -0.66194 | 9323 ft | 266 kts | 115° |
| 2026-05-05 21:18 | 51.75254 | -0.63528 | 9039 ft | 264 kts | 115° |
| 2026-05-05 21:18 | 51.74437 | -0.60880 | 8755 ft | 263 kts | 115° |
| 2026-05-05 21:18 | 51.73410 | -0.58432 | 8422 ft | 265 kts | 137° |
| 2026-05-05 21:18 | 51.71824 | -0.57065 | 8271 ft | 258 kts | 168° |
| 2026-05-05 21:19 | 51.70060 | -0.57125 | 7970 ft | 253 kts | 199° |
| 2026-05-05 21:19 | 51.68503 | -0.58383 | 7687 ft | 250 kts | 218° |
| 2026-05-05 21:19 | 51.67142 | -0.60062 | 7415 ft | 250 kts | 220° |
| 2026-05-05 21:19 | 51.65790 | -0.61817 | 7144 ft | 249 kts | 221° |
| 2026-05-05 21:20 | 51.64458 | -0.63567 | 6792 ft | 247 kts | 221° |
| 2026-05-05 21:20 | 51.63134 | -0.65319 | 6481 ft | 242 kts | 221° |
| 2026-05-05 21:20 | 51.61881 | -0.66984 | 6353 ft | 225 kts | 221° |
| 2026-05-05 21:20 | 51.60723 | -0.68522 | 6212 ft | 208 kts | 221° |
| 2026-05-05 21:21 | 51.59636 | -0.69966 | 5936 ft | 200 kts | 221° |
| 2026-05-05 21:21 | 51.58566 | -0.71391 | 5540 ft | 199 kts | 221° |
| 2026-05-05 21:21 | 51.57506 | -0.72812 | 5225 ft | 197 kts | 221° |
| 2026-05-05 21:21 | 51.56460 | -0.74219 | 4833 ft | 196 kts | 221° |
| 2026-05-05 21:22 | 51.55429 | -0.75615 | 4415 ft | 197 kts | 221° |
| 2026-05-05 21:22 | 51.54386 | -0.77036 | 4019 ft | 196 kts | 221° |
| 2026-05-05 21:22 | 51.53230 | -0.78130 | 3705 ft | 193 kts | 193° |
| 2026-05-05 21:22 | 51.51897 | -0.78385 | 3471 ft | 193 kts | 182° |
| 2026-05-05 21:23 | 51.50563 | -0.78512 | 3254 ft | 192 kts | 181° |
| 2026-05-05 21:23 | 51.49252 | -0.78348 | 3128 ft | 188 kts | 156° |
| 2026-05-05 21:23 | 51.48224 | -0.77140 | 3039 ft | 182 kts | 127° |
| 2026-05-05 21:23 | 51.47679 | -0.75359 | 3007 ft | 177 kts | 100° |
| 2026-05-05 21:24 | 51.47617 | -0.73407 | 3005 ft | 171 kts | 87° |
| 2026-05-05 21:24 | 51.47629 | -0.71581 | 2905 ft | 163 kts | 87° |
| 2026-05-05 21:24 | 51.47641 | -0.69785 | 2731 ft | 160 kts | 87° |
| 2026-05-05 21:24 | 51.47652 | -0.68012 | 2534 ft | 158 kts | 88° |
| 2026-05-05 21:25 | 51.47662 | -0.66256 | 2324 ft | 157 kts | 88° |
| 2026-05-05 21:25 | 51.47672 | -0.64513 | 2114 ft | 156 kts | 88° |
| 2026-05-05 21:25 | 51.47681 | -0.62772 | 1902 ft | 156 kts | 88° |
| 2026-05-05 21:25 | 51.47690 | -0.61044 | 1702 ft | 153 kts | 88° |
| 2026-05-05 21:26 | 51.47699 | -0.59334 | 1484 ft | 154 kts | 88° |
| 2026-05-05 21:26 | 51.47707 | -0.57615 | 1267 ft | 155 kts | 89° |
| 2026-05-05 21:26 | 51.47715 | -0.55958 | 1049 ft | 141 kts | 88° |
| 2026-05-05 21:26 | 51.47722 | -0.54476 | 860 ft | 128 kts | 88° |
| 2026-05-05 21:27 | 51.47728 | -0.53079 | 693 ft | 124 kts | 87° |
| 2026-05-05 21:27 | 51.47735 | -0.51701 | 517 ft | 122 kts | 87° |
| 2026-05-05 21:27 | 51.47739 | -0.50338 | 335 ft | 122 kts | 87° |
| 2026-05-05 21:27 | 51.47747 | -0.48981 | 191 ft | 121 kts | 86° |
| 2026-05-05 21:28 | 51.47753 | -0.47639 | 87 ft | 114 kts | 88° |
| 2026-05-05 21:28 | 51.47757 | -0.46674 | 90 ft | 57 kts | 89° |
| 2026-05-05 21:28 | 51.47758 | -0.46295 | 89 ft | 17 kts | 90° |
| 2026-05-05 21:28 | 51.47715 | -0.46161 | 87 ft | 16 kts | 143° |
| 2026-05-05 21:29 | 51.47630 | -0.46073 | 87 ft | 9 kts | 163° |
| 2026-05-05 21:29 | 51.47597 | -0.46111 | 89 ft | 7 kts | 253° |
| 2026-05-05 21:29 | 51.47594 | -0.46201 | 87 ft | 10 kts | 268° |
| 2026-05-05 21:29 | 51.47593 | -0.46332 | 87 ft | 14 kts | 270° |
| 2026-05-05 21:30 | 51.47592 | -0.46517 | 87 ft | 18 kts | 269° |
| 2026-05-05 21:30 | 51.47591 | -0.46741 | 87 ft | 22 kts | 269° |
| 2026-05-05 21:30 | 51.47582 | -0.46967 | 88 ft | 21 kts | 270° |
| 2026-05-05 21:30 | 51.47581 | -0.47220 | 88 ft | 24 kts | 270° |
| 2026-05-05 21:31 | 51.47581 | -0.47408 | 89 ft | 26 kts | 269° |
| 2026-05-05 21:31 | 51.47579 | -0.47718 | 88 ft | 29 kts | 269° |
| 2026-05-05 21:31 | 51.47578 | -0.48143 | 89 ft | 26 kts | 270° |
| 2026-05-05 21:31 | 51.47565 | -0.48344 | 90 ft | 12 kts | 231° |
| 2026-05-05 21:32 | 51.47497 | -0.48388 | 90 ft | 11 kts | 226° |
| 2026-05-05 21:32 | 51.47462 | -0.48476 | 88 ft | 9 kts | 199° |
| 2026-05-05 21:32 | 51.47421 | -0.48478 | 87 ft | 9 kts | 180° |
| 2026-05-05 21:32 | 51.47399 | -0.48547 | 87 ft | 8 kts | 272° |
| 2026-05-05 21:33 | 51.47399 | -0.48591 | 87 ft | 1 kts | 269° |
| 2026-05-05 21:33 | 51.47399 | -0.48592 | 87 ft | 0 kts | 269° |